Terminal Aerodrome Forecast
Issued by NWS Springfield, MO

Home | Current Version | Previous Version | Text Only | Print | Product List | Glossary On
Versions: 1 2 3 4 5 6 7 8 9 10 11 12 13 14 15 16 17 18 19 20 21 22 23
000
FTUS43 KSGF 150900 AAA
TAFSGF
TAF AMD
KSGF 150907Z 1509/1606 17012KT P6SM BKN100 OVC250
     FM151700 24012KT P6SM SCT050 BKN100
      TEMPO 1522/1602 5SM -TSRA SCT025 OVC050CB
     FM160300 03006KT P6SM SCT015 OVC025=

USA.gov is the U.S. government's official web portal to all federal, state and local government web resources and services.